sensor_id;sensor_type;location;lat;lon;timestamp;P1;durP1;ratioP1;P2;durP2;ratioP2
39188;SDS011;24915;50.858;4.376;2022-07-23T00:00:58;17.15;;;12.98;;
39188;SDS011;24915;50.858;4.376;2022-07-23T00:03:24;16.83;;;13.25;;
39188;SDS011;24915;50.858;4.376;2022-07-23T00:05:50;15.57;;;12.27;;
39188;SDS011;24915;50.858;4.376;2022-07-23T00:08:16;16.10;;;12.48;;
39188;SDS011;24915;50.858;4.376;2022-07-23T00:10:41;17.50;;;13.35;;
39188;SDS011;24915;50.858;4.376;2022-07-23T00:13:07;18.27;;;12.40;;
39188;SDS011;24915;50.858;4.376;2022-07-23T00:15:33;16.75;;;12.35;;
39188;SDS011;24915;50.858;4.376;2022-07-23T00:17:58;18.02;;;13.45;;
39188;SDS011;24915;50.858;4.376;2022-07-23T00:20:24;16.95;;;13.55;;
39188;SDS011;24915;50.858;4.376;2022-07-23T00:22:51;15.25;;;13.25;;
39188;SDS011;24915;50.858;4.376;2022-07-23T00:25:19;17.05;;;14.05;;
39188;SDS011;24915;50.858;4.376;2022-07-23T00:27:46;16.98;;;13.85;;
39188;SDS011;24915;50.858;4.376;2022-07-23T00:30:12;17.90;;;13.75;;
39188;SDS011;24915;50.858;4.376;2022-07-23T00:32:51;16.05;;;14.13;;
39188;SDS011;24915;50.858;4.376;2022-07-23T00:35:19;15.57;;;12.95;;
39188;SDS011;24915;50.858;4.376;2022-07-23T00:37:45;18.45;;;13.88;;
39188;SDS011;24915;50.858;4.376;2022-07-23T00:40:11;22.08;;;14.80;;
39188;SDS011;24915;50.858;4.376;2022-07-23T00:42:37;22.60;;;14.30;;
39188;SDS011;24915;50.858;4.376;2022-07-23T00:45:03;25.52;;;15.27;;
39188;SDS011;24915;50.858;4.376;2022-07-23T00:47:30;20.17;;;14.48;;
39188;SDS011;24915;50.858;4.376;2022-07-23T00:49:55;17.92;;;14.43;;
39188;SDS011;24915;50.858;4.376;2022-07-23T00:52:21;20.75;;;15.30;;
39188;SDS011;24915;50.858;4.376;2022-07-23T00:54:47;17.40;;;14.35;;
39188;SDS011;24915;50.858;4.376;2022-07-23T00:57:13;19.33;;;14.30;;
39188;SDS011;24915;50.858;4.376;2022-07-23T00:59:39;20.05;;;13.73;;
39188;SDS011;24915;50.858;4.376;2022-07-23T01:02:05;18.65;;;14.57;;
39188;SDS011;24915;50.858;4.376;2022-07-23T01:04:31;20.20;;;15.18;;
39188;SDS011;24915;50.858;4.376;2022-07-23T01:06:57;24.27;;;15.52;;
39188;SDS011;24915;50.858;4.376;2022-07-23T01:09:22;19.42;;;14.77;;
39188;SDS011;24915;50.858;4.376;2022-07-23T01:11:48;23.00;;;15.20;;
39188;SDS011;24915;50.858;4.376;2022-07-23T01:14:15;21.15;;;15.60;;
39188;SDS011;24915;50.858;4.376;2022-07-23T01:16:43;17.95;;;15.10;;
39188;SDS011;24915;50.858;4.376;2022-07-23T01:19:10;19.95;;;15.43;;
39188;SDS011;24915;50.858;4.376;2022-07-23T01:21:37;20.10;;;16.45;;
39188;SDS011;24915;50.858;4.376;2022-07-23T01:24:04;19.95;;;16.00;;
39188;SDS011;24915;50.858;4.376;2022-07-23T01:26:30;19.30;;;14.90;;
39188;SDS011;24915;50.858;4.376;2022-07-23T01:28:56;18.60;;;15.55;;
39188;SDS011;24915;50.858;4.376;2022-07-23T01:31:21;17.38;;;15.30;;
39188;SDS011;24915;50.858;4.376;2022-07-23T01:33:47;23.35;;;16.27;;
39188;SDS011;24915;50.858;4.376;2022-07-23T01:36:13;22.13;;;15.80;;
39188;SDS011;24915;50.858;4.376;2022-07-23T01:38:39;24.17;;;16.42;;
39188;SDS011;24915;50.858;4.376;2022-07-23T01:41:05;22.30;;;15.98;;
39188;SDS011;24915;50.858;4.376;2022-07-23T01:43:30;21.02;;;16.10;;
39188;SDS011;24915;50.858;4.376;2022-07-23T01:45:56;23.23;;;16.88;;
39188;SDS011;24915;50.858;4.376;2022-07-23T01:48:22;21.85;;;17.50;;
39188;SDS011;24915;50.858;4.376;2022-07-23T01:50:48;28.30;;;17.98;;
39188;SDS011;24915;50.858;4.376;2022-07-23T01:53:14;17.85;;;15.95;;
39188;SDS011;24915;50.858;4.376;2022-07-23T01:55:40;23.58;;;16.88;;
39188;SDS011;24915;50.858;4.376;2022-07-23T01:58:06;21.60;;;16.67;;
39188;SDS011;24915;50.858;4.376;2022-07-23T02:00:31;24.15;;;17.27;;
39188;SDS011;24915;50.858;4.376;2022-07-23T02:02:57;20.75;;;15.75;;
39188;SDS011;24915;50.858;4.376;2022-07-23T02:05:26;21.85;;;16.13;;
39188;SDS011;24915;50.858;4.376;2022-07-23T02:07:53;22.35;;;16.40;;
39188;SDS011;24915;50.858;4.376;2022-07-23T02:10:20;21.25;;;15.65;;
39188;SDS011;24915;50.858;4.376;2022-07-23T02:12:46;21.85;;;15.95;;
39188;SDS011;24915;50.858;4.376;2022-07-23T02:15:11;23.88;;;16.23;;
39188;SDS011;24915;50.858;4.376;2022-07-23T02:17:37;21.88;;;16.30;;
39188;SDS011;24915;50.858;4.376;2022-07-23T02:20:03;24.85;;;16.40;;
39188;SDS011;24915;50.858;4.376;2022-07-23T02:22:30;17.38;;;15.30;;
39188;SDS011;24915;50.858;4.376;2022-07-23T02:24:55;20.65;;;15.93;;
39188;SDS011;24915;50.858;4.376;2022-07-23T02:27:21;20.75;;;15.15;;
39188;SDS011;24915;50.858;4.376;2022-07-23T02:29:48;22.10;;;16.17;;
39188;SDS011;24915;50.858;4.376;2022-07-23T02:32:14;23.38;;;16.85;;
39188;SDS011;24915;50.858;4.376;2022-07-23T02:34:39;20.70;;;16.00;;
39188;SDS011;24915;50.858;4.376;2022-07-23T02:37:05;23.63;;;15.85;;
39188;SDS011;24915;50.858;4.376;2022-07-23T02:39:31;23.63;;;16.83;;
39188;SDS011;24915;50.858;4.376;2022-07-23T02:41:56;20.33;;;15.00;;
39188;SDS011;24915;50.858;4.376;2022-07-23T02:44:22;21.98;;;15.65;;
39188;SDS011;24915;50.858;4.376;2022-07-23T02:46:47;20.10;;;15.45;;
39188;SDS011;24915;50.858;4.376;2022-07-23T02:49:13;21.17;;;15.90;;
39188;SDS011;24915;50.858;4.376;2022-07-23T02:51:39;21.13;;;16.23;;
39188;SDS011;24915;50.858;4.376;2022-07-23T02:54:04;19.85;;;16.42;;
39188;SDS011;24915;50.858;4.376;2022-07-23T02:56:30;25.58;;;16.50;;
39188;SDS011;24915;50.858;4.376;2022-07-23T02:58:55;23.10;;;17.75;;
39188;SDS011;24915;50.858;4.376;2022-07-23T03:01:21;19.17;;;16.25;;
39188;SDS011;24915;50.858;4.376;2022-07-23T03:03:47;22.20;;;17.42;;
39188;SDS011;24915;50.858;4.376;2022-07-23T03:06:12;22.08;;;16.05;;
39188;SDS011;24915;50.858;4.376;2022-07-23T03:08:38;25.92;;;17.20;;
39188;SDS011;24915;50.858;4.376;2022-07-23T03:11:04;25.58;;;17.23;;
39188;SDS011;24915;50.858;4.376;2022-07-23T03:13:35;23.10;;;17.88;;
39188;SDS011;24915;50.858;4.376;2022-07-23T03:16:05;24.88;;;16.88;;
39188;SDS011;24915;50.858;4.376;2022-07-23T03:18:31;25.23;;;17.45;;
39188;SDS011;24915;50.858;4.376;2022-07-23T03:20:58;20.92;;;16.90;;
39188;SDS011;24915;50.858;4.376;2022-07-23T03:23:23;19.92;;;16.30;;
39188;SDS011;24915;50.858;4.376;2022-07-23T03:25:49;22.60;;;17.40;;
39188;SDS011;24915;50.858;4.376;2022-07-23T03:28:15;25.23;;;17.90;;
39188;SDS011;24915;50.858;4.376;2022-07-23T03:30:42;21.95;;;17.58;;
39188;SDS011;24915;50.858;4.376;2022-07-23T03:33:11;24.40;;;18.00;;
39188;SDS011;24915;50.858;4.376;2022-07-23T03:35:38;21.05;;;17.50;;
39188;SDS011;24915;50.858;4.376;2022-07-23T03:38:03;25.60;;;17.75;;
39188;SDS011;24915;50.858;4.376;2022-07-23T03:40:29;23.15;;;17.33;;
39188;SDS011;24915;50.858;4.376;2022-07-23T03:42:55;21.63;;;16.92;;
39188;SDS011;24915;50.858;4.376;2022-07-23T03:45:20;22.98;;;17.48;;
39188;SDS011;24915;50.858;4.376;2022-07-23T03:47:46;20.33;;;16.52;;
39188;SDS011;24915;50.858;4.376;2022-07-23T03:50:12;24.30;;;17.33;;
39188;SDS011;24915;50.858;4.376;2022-07-23T03:52:37;23.38;;;16.30;;
39188;SDS011;24915;50.858;4.376;2022-07-23T03:55:03;22.92;;;17.52;;
39188;SDS011;24915;50.858;4.376;2022-07-23T03:57:29;28.48;;;17.13;;
39188;SDS011;24915;50.858;4.376;2022-07-23T03:59:55;22.77;;;17.02;;
39188;SDS011;24915;50.858;4.376;2022-07-23T04:02:21;21.58;;;16.10;;
39188;SDS011;24915;50.858;4.376;2022-07-23T04:04:47;21.15;;;16.95;;
39188;SDS011;24915;50.858;4.376;2022-07-23T04:07:13;21.38;;;16.58;;
39188;SDS011;24915;50.858;4.376;2022-07-23T04:09:39;26.05;;;16.15;;
39188;SDS011;24915;50.858;4.376;2022-07-23T04:12:05;22.65;;;16.17;;
39188;SDS011;24915;50.858;4.376;2022-07-23T04:14:32;21.63;;;16.95;;
39188;SDS011;24915;50.858;4.376;2022-07-23T04:16:58;21.33;;;15.68;;
39188;SDS011;24915;50.858;4.376;2022-07-23T04:19:24;23.10;;;15.60;;
39188;SDS011;24915;50.858;4.376;2022-07-23T04:21:51;22.60;;;16.50;;
39188;SDS011;24915;50.858;4.376;2022-07-23T04:24:16;20.05;;;15.15;;
39188;SDS011;24915;50.858;4.376;2022-07-23T04:26:42;20.85;;;15.10;;
39188;SDS011;24915;50.858;4.376;2022-07-23T04:29:08;19.58;;;14.95;;
39188;SDS011;24915;50.858;4.376;2022-07-23T04:31:34;23.67;;;15.88;;
39188;SDS011;24915;50.858;4.376;2022-07-23T04:34:00;24.65;;;16.23;;
39188;SDS011;24915;50.858;4.376;2022-07-23T04:36:26;18.55;;;15.02;;
39188;SDS011;24915;50.858;4.376;2022-07-23T04:38:51;18.45;;;15.18;;
39188;SDS011;24915;50.858;4.376;2022-07-23T04:41:18;18.70;;;14.68;;
39188;SDS011;24915;50.858;4.376;2022-07-23T04:43:43;21.05;;;15.20;;
39188;SDS011;24915;50.858;4.376;2022-07-23T04:46:09;20.00;;;14.82;;
39188;SDS011;24915;50.858;4.376;2022-07-23T04:48:35;24.05;;;16.35;;
39188;SDS011;24915;50.858;4.376;2022-07-23T04:51:01;19.33;;;15.15;;
39188;SDS011;24915;50.858;4.376;2022-07-23T04:53:27;20.40;;;15.43;;
39188;SDS011;24915;50.858;4.376;2022-07-23T04:55:53;20.52;;;14.82;;
39188;SDS011;24915;50.858;4.376;2022-07-23T04:58:18;18.88;;;14.70;;
39188;SDS011;24915;50.858;4.376;2022-07-23T05:00:44;21.60;;;15.25;;
39188;SDS011;24915;50.858;4.376;2022-07-23T05:03:10;20.48;;;15.63;;
39188;SDS011;24915;50.858;4.376;2022-07-23T05:05:35;17.48;;;14.05;;
39188;SDS011;24915;50.858;4.376;2022-07-23T05:08:01;19.90;;;14.40;;
39188;SDS011;24915;50.858;4.376;2022-07-23T05:10:27;21.42;;;13.98;;
39188;SDS011;24915;50.858;4.376;2022-07-23T05:12:52;22.23;;;13.93;;
39188;SDS011;24915;50.858;4.376;2022-07-23T05:15:18;21.33;;;13.52;;
39188;SDS011;24915;50.858;4.376;2022-07-23T05:17:44;17.23;;;12.60;;
39188;SDS011;24915;50.858;4.376;2022-07-23T05:20:09;18.42;;;13.43;;
39188;SDS011;24915;50.858;4.376;2022-07-23T05:22:35;17.63;;;12.88;;
39188;SDS011;24915;50.858;4.376;2022-07-23T05:25:01;18.15;;;13.85;;
39188;SDS011;24915;50.858;4.376;2022-07-23T05:27:26;13.95;;;12.38;;
39188;SDS011;24915;50.858;4.376;2022-07-23T05:29:52;20.02;;;14.35;;
39188;SDS011;24915;50.858;4.376;2022-07-23T05:32:18;19.58;;;14.07;;
39188;SDS011;24915;50.858;4.376;2022-07-23T05:34:44;18.80;;;13.18;;
39188;SDS011;24915;50.858;4.376;2022-07-23T05:37:09;17.95;;;13.23;;
39188;SDS011;24915;50.858;4.376;2022-07-23T05:39:35;15.70;;;13.32;;
39188;SDS011;24915;50.858;4.376;2022-07-23T05:42:01;15.93;;;13.48;;
39188;SDS011;24915;50.858;4.376;2022-07-23T05:44:26;21.20;;;14.63;;
39188;SDS011;24915;50.858;4.376;2022-07-23T05:46:52;17.60;;;14.15;;
39188;SDS011;24915;50.858;4.376;2022-07-23T05:49:18;18.80;;;13.90;;
39188;SDS011;24915;50.858;4.376;2022-07-23T05:51:43;19.75;;;13.55;;
39188;SDS011;24915;50.858;4.376;2022-07-23T05:54:10;14.98;;;13.38;;
39188;SDS011;24915;50.858;4.376;2022-07-23T05:56:35;18.10;;;13.65;;
39188;SDS011;24915;50.858;4.376;2022-07-23T05:59:01;17.52;;;13.25;;
39188;SDS011;24915;50.858;4.376;2022-07-23T06:01:27;19.20;;;13.85;;
39188;SDS011;24915;50.858;4.376;2022-07-23T06:03:52;17.38;;;14.13;;
39188;SDS011;24915;50.858;4.376;2022-07-23T06:06:18;19.27;;;14.13;;
39188;SDS011;24915;50.858;4.376;2022-07-23T06:08:44;19.23;;;13.57;;
39188;SDS011;24915;50.858;4.376;2022-07-23T06:11:09;16.60;;;12.63;;
39188;SDS011;24915;50.858;4.376;2022-07-23T06:13:36;21.52;;;13.13;;
39188;SDS011;24915;50.858;4.376;2022-07-23T06:16:01;17.20;;;12.75;;
39188;SDS011;24915;50.858;4.376;2022-07-23T06:18:27;17.52;;;12.02;;
39188;SDS011;24915;50.858;4.376;2022-07-23T06:20:53;17.95;;;11.82;;
39188;SDS011;24915;50.858;4.376;2022-07-23T06:23:19;18.42;;;12.68;;
39188;SDS011;24915;50.858;4.376;2022-07-23T06:25:45;18.40;;;11.77;;
39188;SDS011;24915;50.858;4.376;2022-07-23T06:28:10;13.13;;;10.95;;
39188;SDS011;24915;50.858;4.376;2022-07-23T06:30:36;16.17;;;10.88;;
39188;SDS011;24915;50.858;4.376;2022-07-23T06:33:02;15.30;;;11.32;;
39188;SDS011;24915;50.858;4.376;2022-07-23T06:35:28;20.17;;;12.05;;
39188;SDS011;24915;50.858;4.376;2022-07-23T06:37:53;17.77;;;12.80;;
39188;SDS011;24915;50.858;4.376;2022-07-23T06:40:19;15.90;;;11.45;;
39188;SDS011;24915;50.858;4.376;2022-07-23T06:42:45;18.25;;;11.65;;
39188;SDS011;24915;50.858;4.376;2022-07-23T06:45:11;13.15;;;10.95;;
39188;SDS011;24915;50.858;4.376;2022-07-23T06:47:36;17.23;;;11.93;;
39188;SDS011;24915;50.858;4.376;2022-07-23T06:50:02;15.00;;;11.10;;
39188;SDS011;24915;50.858;4.376;2022-07-23T06:52:28;15.98;;;10.88;;
39188;SDS011;24915;50.858;4.376;2022-07-23T06:54:54;15.68;;;11.80;;
39188;SDS011;24915;50.858;4.376;2022-07-23T06:57:19;15.02;;;10.63;;
39188;SDS011;24915;50.858;4.376;2022-07-23T06:59:45;12.50;;;9.77;;
39188;SDS011;24915;50.858;4.376;2022-07-23T07:02:10;17.00;;;11.35;;
39188;SDS011;24915;50.858;4.376;2022-07-23T07:04:36;13.88;;;10.95;;
39188;SDS011;24915;50.858;4.376;2022-07-23T07:07:02;14.50;;;10.98;;
39188;SDS011;24915;50.858;4.376;2022-07-23T07:09:27;12.90;;;10.80;;
39188;SDS011;24915;50.858;4.376;2022-07-23T07:11:53;15.98;;;10.32;;
39188;SDS011;24915;50.858;4.376;2022-07-23T07:14:19;14.85;;;10.85;;
39188;SDS011;24915;50.858;4.376;2022-07-23T07:16:44;13.15;;;9.73;;
39188;SDS011;24915;50.858;4.376;2022-07-23T07:19:10;13.48;;;9.65;;
39188;SDS011;24915;50.858;4.376;2022-07-23T07:21:35;15.50;;;9.23;;
39188;SDS011;24915;50.858;4.376;2022-07-23T07:24:01;16.17;;;8.88;;
39188;SDS011;24915;50.858;4.376;2022-07-23T07:26:27;15.77;;;10.32;;
39188;SDS011;24915;50.858;4.376;2022-07-23T07:28:52;18.35;;;11.45;;
39188;SDS011;24915;50.858;4.376;2022-07-23T07:31:18;15.70;;;10.23;;
39188;SDS011;24915;50.858;4.376;2022-07-23T07:33:44;16.27;;;10.07;;
39188;SDS011;24915;50.858;4.376;2022-07-23T07:36:09;12.98;;;9.43;;
39188;SDS011;24915;50.858;4.376;2022-07-23T07:38:35;15.07;;;9.25;;
39188;SDS011;24915;50.858;4.376;2022-07-23T07:41:01;10.27;;;8.18;;
39188;SDS011;24915;50.858;4.376;2022-07-23T07:43:27;13.85;;;7.72;;
39188;SDS011;24915;50.858;4.376;2022-07-23T07:45:52;11.38;;;8.68;;
39188;SDS011;24915;50.858;4.376;2022-07-23T07:48:18;12.18;;;8.25;;
39188;SDS011;24915;50.858;4.376;2022-07-23T07:50:44;16.88;;;8.80;;
39188;SDS011;24915;50.858;4.376;2022-07-23T07:53:09;12.13;;;7.90;;
39188;SDS011;24915;50.858;4.376;2022-07-23T07:55:35;11.40;;;8.35;;
39188;SDS011;24915;50.858;4.376;2022-07-23T07:58:01;10.05;;;7.57;;
39188;SDS011;24915;50.858;4.376;2022-07-23T08:00:27;14.88;;;8.85;;
39188;SDS011;24915;50.858;4.376;2022-07-23T08:02:53;13.15;;;8.30;;
39188;SDS011;24915;50.858;4.376;2022-07-23T08:05:23;13.73;;;8.70;;
39188;SDS011;24915;50.858;4.376;2022-07-23T08:07:52;12.63;;;7.97;;
39188;SDS011;24915;50.858;4.376;2022-07-23T08:10:18;12.05;;;8.30;;
39188;SDS011;24915;50.858;4.376;2022-07-23T08:12:48;13.13;;;8.07;;
39188;SDS011;24915;50.858;4.376;2022-07-23T08:15:15;10.57;;;8.30;;
39188;SDS011;24915;50.858;4.376;2022-07-23T08:17:43;10.93;;;7.57;;
39188;SDS011;24915;50.858;4.376;2022-07-23T08:20:10;12.82;;;6.78;;
39188;SDS011;24915;50.858;4.376;2022-07-23T08:25:09;10.43;;;8.50;;
39188;SDS011;24915;50.858;4.376;2022-07-23T08:27:35;9.93;;;6.75;;
39188;SDS011;24915;50.858;4.376;2022-07-23T08:30:01;11.30;;;7.88;;
39188;SDS011;24915;50.858;4.376;2022-07-23T08:32:26;12.90;;;7.68;;
39188;SDS011;24915;50.858;4.376;2022-07-23T08:34:52;12.95;;;8.02;;
39188;SDS011;24915;50.858;4.376;2022-07-23T08:37:18;13.43;;;8.63;;
39188;SDS011;24915;50.858;4.376;2022-07-23T08:39:44;9.75;;;7.60;;
39188;SDS011;24915;50.858;4.376;2022-07-23T08:42:09;13.50;;;8.43;;
39188;SDS011;24915;50.858;4.376;2022-07-23T08:44:35;10.93;;;8.98;;
39188;SDS011;24915;50.858;4.376;2022-07-23T08:47:01;14.35;;;8.40;;
39188;SDS011;24915;50.858;4.376;2022-07-23T08:49:28;11.70;;;8.75;;
39188;SDS011;24915;50.858;4.376;2022-07-23T08:51:54;13.88;;;8.60;;
39188;SDS011;24915;50.858;4.376;2022-07-23T08:54:21;14.40;;;8.40;;
39188;SDS011;24915;50.858;4.376;2022-07-23T08:56:48;13.43;;;7.32;;
39188;SDS011;24915;50.858;4.376;2022-07-23T08:59:13;10.07;;;7.50;;
39188;SDS011;24915;50.858;4.376;2022-07-23T09:01:39;11.85;;;7.70;;
39188;SDS011;24915;50.858;4.376;2022-07-23T09:04:05;8.45;;;6.50;;
39188;SDS011;24915;50.858;4.376;2022-07-23T09:06:31;10.43;;;7.43;;
39188;SDS011;24915;50.858;4.376;2022-07-23T09:08:56;10.45;;;7.35;;
39188;SDS011;24915;50.858;4.376;2022-07-23T09:11:22;10.20;;;6.50;;
39188;SDS011;24915;50.858;4.376;2022-07-23T09:13:49;9.52;;;6.55;;
39188;SDS011;24915;50.858;4.376;2022-07-23T09:16:24;11.48;;;6.45;;
39188;SDS011;24915;50.858;4.376;2022-07-23T09:18:57;7.70;;;5.88;;
39188;SDS011;24915;50.858;4.376;2022-07-23T09:26:34;9.02;;;6.50;;
39188;SDS011;24915;50.858;4.376;2022-07-23T09:29:04;11.48;;;7.15;;
39188;SDS011;24915;50.858;4.376;2022-07-23T09:34:15;15.32;;;6.10;;
39188;SDS011;24915;50.858;4.376;2022-07-23T09:36:41;8.88;;;5.93;;
39188;SDS011;24915;50.858;4.376;2022-07-23T09:39:09;7.00;;;5.38;;
39188;SDS011;24915;50.858;4.376;2022-07-23T09:41:45;7.55;;;5.13;;
39188;SDS011;24915;50.858;4.376;2022-07-23T09:44:15;8.27;;;5.47;;
39188;SDS011;24915;50.858;4.376;2022-07-23T09:46:46;9.45;;;5.00;;
39188;SDS011;24915;50.858;4.376;2022-07-23T09:49:19;4.85;;;4.45;;
39188;SDS011;24915;50.858;4.376;2022-07-23T09:51:56;6.53;;;4.60;;
39188;SDS011;24915;50.858;4.376;2022-07-23T09:56:50;7.55;;;5.15;;
39188;SDS011;24915;50.858;4.376;2022-07-23T09:59:16;7.30;;;4.47;;
39188;SDS011;24915;50.858;4.376;2022-07-23T10:01:43;7.35;;;4.47;;
39188;SDS011;24915;50.858;4.376;2022-07-23T10:04:13;8.90;;;5.03;;
39188;SDS011;24915;50.858;4.376;2022-07-23T10:06:39;7.97;;;4.40;;
39188;SDS011;24915;50.858;4.376;2022-07-23T10:09:08;8.65;;;4.60;;
39188;SDS011;24915;50.858;4.376;2022-07-23T10:11:37;6.47;;;3.72;;
39188;SDS011;24915;50.858;4.376;2022-07-23T10:14:03;3.33;;;3.03;;
39188;SDS011;24915;50.858;4.376;2022-07-23T10:16:30;8.40;;;3.72;;
39188;SDS011;24915;50.858;4.376;2022-07-23T10:18:56;3.67;;;3.38;;
39188;SDS011;24915;50.858;4.376;2022-07-23T10:21:41;7.97;;;4.57;;
39188;SDS011;24915;50.858;4.376;2022-07-23T10:24:30;7.15;;;3.92;;
39188;SDS011;24915;50.858;4.376;2022-07-23T10:29:47;8.00;;;4.05;;
39188;SDS011;24915;50.858;4.376;2022-07-23T10:32:37;4.55;;;3.25;;
39188;SDS011;24915;50.858;4.376;2022-07-23T10:38:02;6.47;;;3.55;;
39188;SDS011;24915;50.858;4.376;2022-07-23T10:40:37;8.82;;;3.30;;
39188;SDS011;24915;50.858;4.376;2022-07-23T10:43:22;6.75;;;4.50;;
39188;SDS011;24915;50.858;4.376;2022-07-23T10:45:48;6.68;;;3.95;;
39188;SDS011;24915;50.858;4.376;2022-07-23T10:48:16;3.63;;;3.05;;
39188;SDS011;24915;50.858;4.376;2022-07-23T10:59:30;4.07;;;3.22;;
39188;SDS011;24915;50.858;4.376;2022-07-23T11:02:20;5.80;;;3.60;;
39188;SDS011;24915;50.858;4.376;2022-07-23T11:04:51;6.13;;;3.53;;
39188;SDS011;24915;50.858;4.376;2022-07-23T11:07:18;9.40;;;4.40;;
39188;SDS011;24915;50.858;4.376;2022-07-23T11:09:44;7.63;;;4.13;;
39188;SDS011;24915;50.858;4.376;2022-07-23T11:15:04;5.45;;;3.28;;
39188;SDS011;24915;50.858;4.376;2022-07-23T11:17:32;6.85;;;3.30;;
39188;SDS011;24915;50.858;4.376;2022-07-23T11:25:08;4.55;;;3.42;;
39188;SDS011;24915;50.858;4.376;2022-07-23T11:27:46;4.85;;;3.00;;
39188;SDS011;24915;50.858;4.376;2022-07-23T11:33:16;7.43;;;3.00;;
39188;SDS011;24915;50.858;4.376;2022-07-23T11:35:46;4.03;;;3.33;;
39188;SDS011;24915;50.858;4.376;2022-07-23T11:38:25;6.13;;;3.38;;
39188;SDS011;24915;50.858;4.376;2022-07-23T11:40:52;3.25;;;2.80;;
39188;SDS011;24915;50.858;4.376;2022-07-23T11:43:20;7.38;;;3.67;;
39188;SDS011;24915;50.858;4.376;2022-07-23T11:45:47;3.42;;;3.13;;
39188;SDS011;24915;50.858;4.376;2022-07-23T11:48:24;5.68;;;3.17;;
39188;SDS011;24915;50.858;4.376;2022-07-23T11:50:52;8.55;;;4.32;;
39188;SDS011;24915;50.858;4.376;2022-07-23T11:53:22;9.40;;;4.75;;
39188;SDS011;24915;50.858;4.376;2022-07-23T11:55:49;4.50;;;3.90;;
39188;SDS011;24915;50.858;4.376;2022-07-23T11:58:16;3.67;;;3.25;;
39188;SDS011;24915;50.858;4.376;2022-07-23T12:00:41;3.33;;;3.00;;
39188;SDS011;24915;50.858;4.376;2022-07-23T12:03:07;4.95;;;4.38;;
39188;SDS011;24915;50.858;4.376;2022-07-23T12:05:34;4.05;;;3.50;;
39188;SDS011;24915;50.858;4.376;2022-07-23T12:08:03;4.88;;;3.83;;
39188;SDS011;24915;50.858;4.376;2022-07-23T12:13:01;5.38;;;3.83;;
39188;SDS011;24915;50.858;4.376;2022-07-23T12:15:33;5.00;;;4.43;;
39188;SDS011;24915;50.858;4.376;2022-07-23T12:18:02;9.15;;;4.50;;
39188;SDS011;24915;50.858;4.376;2022-07-23T12:20:30;8.93;;;4.22;;
39188;SDS011;24915;50.858;4.376;2022-07-23T12:22:59;6.75;;;3.45;;
39188;SDS011;24915;50.858;4.376;2022-07-23T12:25:30;7.55;;;4.68;;
39188;SDS011;24915;50.858;4.376;2022-07-23T12:28:05;8.20;;;5.13;;
39188;SDS011;24915;50.858;4.376;2022-07-23T12:35:37;4.50;;;4.10;;
39188;SDS011;24915;50.858;4.376;2022-07-23T12:38:08;8.48;;;4.80;;
39188;SDS011;24915;50.858;4.376;2022-07-23T12:40:36;6.10;;;4.10;;
39188;SDS011;24915;50.858;4.376;2022-07-23T12:43:08;4.60;;;4.15;;
39188;SDS011;24915;50.858;4.376;2022-07-23T12:50:54;7.40;;;5.60;;
39188;SDS011;24915;50.858;4.376;2022-07-23T12:53:23;7.88;;;4.72;;
39188;SDS011;24915;50.858;4.376;2022-07-23T12:58:45;4.90;;;3.60;;
39188;SDS011;24915;50.858;4.376;2022-07-23T13:06:38;4.03;;;3.17;;
39188;SDS011;24915;50.858;4.376;2022-07-23T13:09:07;7.53;;;4.10;;
39188;SDS011;24915;50.858;4.376;2022-07-23T13:11:34;5.68;;;4.05;;
39188;SDS011;24915;50.858;4.376;2022-07-23T13:14:00;7.97;;;3.90;;
39188;SDS011;24915;50.858;4.376;2022-07-23T13:16:27;6.97;;;4.13;;
39188;SDS011;24915;50.858;4.376;2022-07-23T13:18:53;6.82;;;3.70;;
39188;SDS011;24915;50.858;4.376;2022-07-23T13:21:21;7.10;;;4.07;;
39188;SDS011;24915;50.858;4.376;2022-07-23T13:23:47;6.35;;;4.82;;
39188;SDS011;24915;50.858;4.376;2022-07-23T13:26:13;5.47;;;4.00;;
39188;SDS011;24915;50.858;4.376;2022-07-23T13:28:38;8.55;;;3.97;;
39188;SDS011;24915;50.858;4.376;2022-07-23T13:31:04;4.97;;;4.20;;
39188;SDS011;24915;50.858;4.376;2022-07-23T13:33:30;6.63;;;4.00;;
39188;SDS011;24915;50.858;4.376;2022-07-23T13:35:55;4.05;;;3.55;;
39188;SDS011;24915;50.858;4.376;2022-07-23T13:38:21;3.70;;;3.30;;
39188;SDS011;24915;50.858;4.376;2022-07-23T13:40:49;3.67;;;3.30;;
39188;SDS011;24915;50.858;4.376;2022-07-23T13:43:17;5.18;;;3.13;;
39188;SDS011;24915;50.858;4.376;2022-07-23T13:45:44;5.40;;;3.38;;
39188;SDS011;24915;50.858;4.376;2022-07-23T13:48:11;4.75;;;2.92;;
39188;SDS011;24915;50.858;4.376;2022-07-23T13:50:38;6.03;;;3.38;;
39188;SDS011;24915;50.858;4.376;2022-07-23T13:53:08;3.13;;;2.70;;
39188;SDS011;24915;50.858;4.376;2022-07-23T13:55:39;4.63;;;2.78;;
39188;SDS011;24915;50.858;4.376;2022-07-23T13:58:06;6.28;;;3.28;;
39188;SDS011;24915;50.858;4.376;2022-07-23T14:00:34;3.97;;;2.95;;
39188;SDS011;24915;50.858;4.376;2022-07-23T14:03:01;3.40;;;2.90;;
39188;SDS011;24915;50.858;4.376;2022-07-23T14:05:27;3.67;;;3.38;;
39188;SDS011;24915;50.858;4.376;2022-07-23T14:07:53;4.65;;;2.75;;
39188;SDS011;24915;50.858;4.376;2022-07-23T14:10:20;3.47;;;2.70;;
39188;SDS011;24915;50.858;4.376;2022-07-23T14:12:50;3.42;;;2.80;;
39188;SDS011;24915;50.858;4.376;2022-07-23T14:15:18;3.00;;;2.70;;
39188;SDS011;24915;50.858;4.376;2022-07-23T14:17:44;4.22;;;3.20;;
39188;SDS011;24915;50.858;4.376;2022-07-23T14:20:11;5.60;;;2.60;;
39188;SDS011;24915;50.858;4.376;2022-07-23T14:22:38;3.15;;;2.85;;
39188;SDS011;24915;50.858;4.376;2022-07-23T14:25:05;2.88;;;2.63;;
39188;SDS011;24915;50.858;4.376;2022-07-23T14:27:32;9.23;;;3.05;;
39188;SDS011;24915;50.858;4.376;2022-07-23T14:29:58;3.60;;;2.78;;
39188;SDS011;24915;50.858;4.376;2022-07-23T14:32:24;3.95;;;2.53;;
39188;SDS011;24915;50.858;4.376;2022-07-23T14:34:49;4.82;;;3.97;;
39188;SDS011;24915;50.858;4.376;2022-07-23T14:37:15;6.13;;;3.88;;
39188;SDS011;24915;50.858;4.376;2022-07-23T14:39:42;7.50;;;3.13;;
39188;SDS011;24915;50.858;4.376;2022-07-23T14:42:09;4.13;;;3.00;;
39188;SDS011;24915;50.858;4.376;2022-07-23T14:44:35;4.28;;;3.70;;
39188;SDS011;24915;50.858;4.376;2022-07-23T14:47:01;3.78;;;3.40;;
39188;SDS011;24915;50.858;4.376;2022-07-23T14:49:29;4.03;;;3.20;;
39188;SDS011;24915;50.858;4.376;2022-07-23T14:51:55;4.30;;;3.78;;
39188;SDS011;24915;50.858;4.376;2022-07-23T14:54:21;3.90;;;3.60;;
39188;SDS011;24915;50.858;4.376;2022-07-23T14:56:48;4.90;;;2.95;;
39188;SDS011;24915;50.858;4.376;2022-07-23T14:59:14;3.20;;;3.00;;
39188;SDS011;24915;50.858;4.376;2022-07-23T15:01:39;4.03;;;3.25;;
39188;SDS011;24915;50.858;4.376;2022-07-23T15:04:06;5.38;;;3.58;;
39188;SDS011;24915;50.858;4.376;2022-07-23T15:06:32;4.53;;;3.00;;
39188;SDS011;24915;50.858;4.376;2022-07-23T15:08:58;5.05;;;3.40;;
39188;SDS011;24915;50.858;4.376;2022-07-23T15:11:25;6.38;;;3.25;;
39188;SDS011;24915;50.858;4.376;2022-07-23T15:13:54;3.67;;;3.35;;
39188;SDS011;24915;50.858;4.376;2022-07-23T15:16:19;5.28;;;3.50;;
39188;SDS011;24915;50.858;4.376;2022-07-23T15:18:45;3.78;;;3.15;;
39188;SDS011;24915;50.858;4.376;2022-07-23T15:21:11;4.88;;;3.45;;
39188;SDS011;24915;50.858;4.376;2022-07-23T15:23:37;7.47;;;3.50;;
39188;SDS011;24915;50.858;4.376;2022-07-23T15:26:04;3.95;;;3.35;;
39188;SDS011;24915;50.858;4.376;2022-07-23T15:28:31;6.25;;;3.38;;
39188;SDS011;24915;50.858;4.376;2022-07-23T15:30:56;5.05;;;3.42;;